Terminal Aerodrome Forecast
Issued by NWS

Home | Current Version | Previous Version | Text Only | Print | Product List | Glossary On
Versions: 1 2 3 4 5 6 7 8 9 10 11 12 13 14 15 16 17 18 19 20 21 22 23
000
FTUS45 KPSR 171720
TAFIWA
TAF
KIWA 171720Z 1718/1818 15006KT P6SM BKN120 BKN150
     FM171900 27008KT P6SM SCT100 BKN150
     FM180700 09005KT P6SM SCT250
     FM181600 03008KT P6SM FEW250=

USA.gov is the U.S. government's official web portal to all federal, state and local government web resources and services.